Time;durP1;ratioP1;P1;durP2;ratioP2;P2;SDS_P1;SDS_P2;PMS_P1;PMS_P2;Temp;Humidity;BMP_temperature;BMP_pressure;BME280_temperature;BME280_humidity;BME280_pressure;Samples;Min_cycle;Max_cycle;Signal;HPM_P1;HPM_P2
2023/11/01 00:00:59;;;;;;;2.58;0.47;;;6.20;99.90;;;;;;5050321;28;20755;-61
2023/11/01 00:03:26;;;;;;;12.30;1.00;;;6.20;99.90;;;;;;5052064;28;20048;-67
2023/11/01 00:05:53;;;;;;;2.00;0.52;;;6.20;99.90;;;;;;5052917;28;20041;-64
2023/11/01 00:08:20;;;;;;;2.55;1.00;;;6.20;99.90;;;;;;5051205;28;20069;-62
2023/11/01 00:10:47;;;;;;;4.20;1.00;;;6.20;99.90;;;;;;5047391;28;20699;-62
2023/11/01 00:13:14;;;;;;;2.45;0.85;;;6.10;99.90;;;;;;5051444;28;20523;-64
2023/11/01 00:15:41;;;;;;;4.10;0.68;;;6.10;99.90;;;;;;5049123;28;20496;-62
2023/11/01 00:18:08;;;;;;;1.13;0.65;;;6.10;99.90;;;;;;5048862;28;20053;-62
2023/11/01 00:20:35;;;;;;;5.78;0.90;;;6.10;99.90;;;;;;5047548;28;20047;-64
2023/11/01 00:23:01;;;;;;;3.67;0.98;;;6.10;99.90;;;;;;5047617;28;20120;-62
2023/11/01 00:25:28;;;;;;;1.33;0.60;;;6.00;99.90;;;;;;5051367;28;20497;-65
2023/11/01 00:27:55;;;;;;;1.48;0.88;;;6.00;99.90;;;;;;5052281;28;20443;-62
2023/11/01 00:30:22;;;;;;;2.30;0.65;;;5.90;99.90;;;;;;5049010;28;20045;-63
2023/11/01 00:32:49;;;;;;;2.88;0.57;;;5.90;99.90;;;;;;5051453;28;20102;-62
2023/11/01 00:35:17;;;;;;;5.10;0.82;;;5.90;99.90;;;;;;5050414;28;20068;-64
2023/11/01 00:37:44;;;;;;;1.65;0.90;;;5.90;99.90;;;;;;5058230;28;20406;-61
2023/11/01 00:40:11;;;;;;;3.20;0.50;;;5.90;99.90;;;;;;5055705;28;20040;-62
2023/11/01 00:42:38;;;;;;;3.30;0.60;;;5.90;99.90;;;;;;5051893;28;20049;-62
2023/11/01 00:45:06;;;;;;;2.90;0.52;;;5.90;99.90;;;;;;5049661;28;20045;-62
2023/11/01 00:47:33;;;;;;;3.88;1.10;;;5.90;99.90;;;;;;5051050;28;20061;-61
2023/11/01 00:50:00;;;;;;;6.68;0.98;;;5.80;99.90;;;;;;5054582;28;20102;-61
2023/11/01 00:52:27;;;;;;;1.33;1.17;;;5.80;99.90;;;;;;5054480;28;20040;-63
2023/11/01 00:54:54;;;;;;;2.60;0.32;;;5.80;99.90;;;;;;5051899;28;20045;-61
2023/11/01 00:57:20;;;;;;;2.22;0.40;;;5.80;99.90;;;;;;5038471;28;20056;-61
2023/11/01 00:59:47;;;;;;;1.30;0.60;;;5.80;99.90;;;;;;5053555;28;20397;-61
2023/11/01 01:02:14;;;;;;;0.98;0.90;;;5.70;99.90;;;;;;5051703;28;20099;-62
2023/11/01 01:04:45;;;;;;;1.85;0.93;;;5.70;99.90;;;;;;5052137;28;20048;-61
2023/11/01 01:07:12;;;;;;;3.53;0.30;;;5.70;99.90;;;;;;5051515;28;20045;-62
2023/11/01 01:09:39;;;;;;;2.90;0.40;;;5.60;99.90;;;;;;5040055;28;20102;-61
2023/11/01 01:12:06;;;;;;;3.70;0.57;;;5.60;99.90;;;;;;5052287;28;20037;-62
2023/11/01 01:14:33;;;;;;;4.00;0.40;;;5.50;99.90;;;;;;5051230;28;20410;-61
2023/11/01 01:17:00;;;;;;;2.17;0.52;;;5.40;99.90;;;;;;5055849;28;20048;-67
2023/11/01 01:19:28;;;;;;;3.63;0.68;;;5.40;99.90;;;;;;5032963;28;20057;-65
2023/11/01 01:21:54;;;;;;;4.63;0.40;;;5.40;99.90;;;;;;5050553;28;20056;-68
2023/11/01 01:24:21;;;;;;;1.38;0.40;;;5.40;99.90;;;;;;5047908;28;20621;-63
2023/11/01 01:26:48;;;;;;;0.90;0.43;;;5.30;99.90;;;;;;5020534;28;20052;-65
2023/11/01 01:29:15;;;;;;;1.85;1.20;;;5.40;99.90;;;;;;5062213;28;20053;-61
2023/11/01 01:31:42;;;;;;;0.77;0.77;;;5.40;99.90;;;;;;5053246;28;20041;-61
2023/11/01 01:34:09;;;;;;;6.18;0.90;;;5.30;99.90;;;;;;5050214;28;20057;-65
2023/11/01 01:36:36;;;;;;;0.75;0.30;;;5.30;99.90;;;;;;5033478;28;20114;-61
2023/11/01 01:39:03;;;;;;;7.97;0.40;;;5.30;99.90;;;;;;5051411;28;20090;-62
2023/11/01 01:41:30;;;;;;;5.20;0.73;;;5.30;99.90;;;;;;5060203;28;20063;-63
2023/11/01 01:43:57;;;;;;;3.03;0.70;;;5.30;99.90;;;;;;5052762;28;20136;-61
2023/11/01 01:46:28;;;;;;;4.72;0.82;;;5.30;99.90;;;;;;5050198;28;20052;-61
2023/11/01 01:48:57;;;;;;;0.80;0.30;;;5.30;99.90;;;;;;5052301;28;20044;-61
2023/11/01 01:51:26;;;;;;;5.40;0.68;;;5.30;99.90;;;;;;5048463;28;20045;-66
2023/11/01 01:53:54;;;;;;;4.60;0.52;;;5.30;99.90;;;;;;5054874;28;20059;-62
2023/11/01 01:56:22;;;;;;;0.88;0.32;;;5.30;99.90;;;;;;5052446;28;20091;-62
2023/11/01 01:58:50;;;;;;;3.60;0.82;;;5.30;99.90;;;;;;5032334;28;20045;-63
2023/11/01 02:01:19;;;;;;;2.38;0.90;;;5.30;99.90;;;;;;5034453;28;20106;-63
2023/11/01 02:04:01;;;;;;;3.33;0.50;;;5.20;99.90;;;;;;5045677;28;20110;-62
2023/11/01 02:06:28;;;;;;;1.98;0.70;;;5.20;99.90;;;;;;5047841;28;20399;-64
2023/11/01 02:08:54;;;;;;;2.05;0.77;;;5.20;99.90;;;;;;5049433;28;20047;-66
2023/11/01 02:11:21;;;;;;;1.38;0.80;;;5.10;99.90;;;;;;5051921;28;20107;-61
2023/11/01 02:13:48;;;;;;;1.25;0.60;;;5.10;99.90;;;;;;5033469;28;20048;-64
2023/11/01 02:16:15;;;;;;;1.25;0.50;;;5.20;99.90;;;;;;5036544;28;20080;-64
2023/11/01 02:18:42;;;;;;;0.80;0.60;;;5.10;99.90;;;;;;5033311;28;20122;-62
2023/11/01 02:21:09;;;;;;;1.08;0.45;;;5.10;99.90;;;;;;5040655;28;20446;-61
2023/11/01 02:23:36;;;;;;;1.30;0.57;;;5.10;99.90;;;;;;5037418;28;20560;-64
2023/11/01 02:26:03;;;;;;;0.30;0.30;;;5.10;99.90;;;;;;5055736;28;20055;-61
2023/11/01 02:28:30;;;;;;;3.92;0.70;;;5.00;99.90;;;;;;5050368;28;20041;-63
2023/11/01 02:30:57;;;;;;;1.67;0.90;;;5.00;99.90;;;;;;5053818;28;20045;-62
2023/11/01 02:33:24;;;;;;;2.83;0.73;;;5.00;99.90;;;;;;5043492;28;20459;-60
2023/11/01 02:35:51;;;;;;;0.95;0.73;;;5.00;99.90;;;;;;5035669;28;20083;-62
2023/11/01 02:38:18;;;;;;;0.95;0.70;;;5.00;99.90;;;;;;5051214;28;20045;-64
2023/11/01 02:40:45;;;;;;;3.17;0.77;;;4.90;99.90;;;;;;5052398;28;20040;-61
2023/11/01 02:43:12;;;;;;;0.73;0.57;;;4.90;99.90;;;;;;5053715;28;20094;-61
2023/11/01 02:45:38;;;;;;;1.40;0.70;;;4.90;99.90;;;;;;5035767;28;20079;-64
2023/11/01 02:48:06;;;;;;;1.27;0.55;;;4.80;99.90;;;;;;5040786;28;20154;-62
2023/11/01 02:50:33;;;;;;;1.65;0.60;;;4.80;99.90;;;;;;5048395;28;20103;-62
2023/11/01 02:53:00;;;;;;;1.50;1.00;;;4.80;99.90;;;;;;5039632;28;20040;-64
2023/11/01 02:55:27;;;;;;;1.30;0.95;;;4.80;99.90;;;;;;5050833;28;20049;-65
2023/11/01 02:57:54;;;;;;;4.47;1.38;;;4.70;99.90;;;;;;5046615;28;20044;-61
2023/11/01 03:00:21;;;;;;;2.45;0.80;;;4.80;99.90;;;;;;5045099;28;20171;-65
2023/11/01 03:02:49;;;;;;;2.20;0.70;;;4.80;99.90;;;;;;5050017;28;20037;-64
2023/11/01 03:05:16;;;;;;;1.15;0.75;;;4.70;99.90;;;;;;5045150;28;20047;-62
2023/11/01 03:07:44;;;;;;;0.73;0.65;;;4.70;99.90;;;;;;5034593;28;20527;-62
2023/11/01 03:10:11;;;;;;;1.77;1.08;;;4.70;99.90;;;;;;5031774;28;20110;-64
2023/11/01 03:12:40;;;;;;;1.17;0.80;;;4.70;99.90;;;;;;5050017;28;20068;-62
2023/11/01 03:15:07;;;;;;;1.95;1.08;;;4.70;99.90;;;;;;5041933;28;20110;-62
2023/11/01 03:17:36;;;;;;;1.95;0.98;;;4.60;99.90;;;;;;5049297;28;20040;-61
2023/11/01 03:20:05;;;;;;;2.35;0.70;;;4.70;99.90;;;;;;5048040;28;20045;-63
2023/11/01 03:22:32;;;;;;;2.17;0.70;;;4.70;99.90;;;;;;5049782;28;20106;-66
2023/11/01 03:25:00;;;;;;;1.83;0.95;;;4.70;99.90;;;;;;5051293;28;20060;-63
2023/11/01 03:27:27;;;;;;;1.33;0.70;;;4.60;99.90;;;;;;5049177;28;20076;-64
2023/11/01 03:29:56;;;;;;;2.30;0.82;;;4.70;99.90;;;;;;5049364;28;20659;-64
2023/11/01 03:32:22;;;;;;;2.20;1.33;;;4.70;99.90;;;;;;5051603;28;20044;-64
2023/11/01 03:34:50;;;;;;;1.17;0.88;;;4.60;99.90;;;;;;5050102;28;20055;-61
2023/11/01 03:37:17;;;;;;;1.83;0.70;;;4.60;99.90;;;;;;5043754;28;20548;-64
2023/11/01 03:39:44;;;;;;;1.90;0.75;;;4.60;99.90;;;;;;5053826;28;20123;-63
2023/11/01 03:42:11;;;;;;;2.60;0.70;;;4.60;99.90;;;;;;5048669;28;20049;-66
2023/11/01 03:44:38;;;;;;;0.98;0.82;;;4.60;99.90;;;;;;5054328;28;20099;-61
2023/11/01 03:47:05;;;;;;;1.75;1.65;;;4.50;99.90;;;;;;5031712;28;20049;-63
2023/11/01 03:49:32;;;;;;;1.50;0.68;;;4.50;99.90;;;;;;5053177;28;20072;-61
2023/11/01 03:52:02;;;;;;;1.00;0.80;;;4.50;99.90;;;;;;5050564;28;20436;-62
2023/11/01 03:54:33;;;;;;;0.95;0.80;;;4.50;99.90;;;;;;5045262;28;20652;-61
2023/11/01 03:57:01;;;;;;;2.33;1.63;;;4.50;99.90;;;;;;5051114;28;20044;-62
2023/11/01 03:59:28;;;;;;;0.70;0.60;;;4.50;99.90;;;;;;5048833;28;20095;-62
2023/11/01 04:01:56;;;;;;;1.45;0.50;;;4.40;99.90;;;;;;5048569;28;20041;-61
2023/11/01 04:04:22;;;;;;;0.88;0.65;;;4.40;99.90;;;;;;5049158;28;20041;-62
2023/11/01 04:06:49;;;;;;;2.42;1.10;;;4.30;99.90;;;;;;5049264;28;20037;-62
2023/11/01 04:09:16;;;;;;;3.05;0.75;;;4.30;99.90;;;;;;5049881;28;20048;-61
2023/11/01 04:11:43;;;;;;;1.83;1.25;;;4.30;99.90;;;;;;5050603;28;20136;-63
2023/11/01 04:14:10;;;;;;;5.97;1.25;;;4.30;99.90;;;;;;5048194;28;20049;-63
2023/11/01 04:16:37;;;;;;;11.02;2.10;;;4.30;99.90;;;;;;5037811;28;20376;-63
2023/11/01 04:19:04;;;;;;;3.25;1.10;;;4.30;99.90;;;;;;5048461;28;20123;-62
2023/11/01 04:21:31;;;;;;;1.48;0.70;;;4.30;99.90;;;;;;5047176;28;20045;-61
2023/11/01 04:23:58;;;;;;;3.25;1.30;;;4.30;99.90;;;;;;5055930;28;20053;-65
2023/11/01 04:26:25;;;;;;;0.70;0.65;;;4.30;99.90;;;;;;5055656;28;20068;-65
2023/11/01 04:28:51;;;;;;;1.95;0.90;;;4.20;99.90;;;;;;5056759;28;20040;-63
2023/11/01 04:31:24;;;;;;;2.63;0.98;;;4.30;99.90;;;;;;5059604;28;20091;-63
2023/11/01 04:33:54;;;;;;;1.48;1.10;;;4.20;99.90;;;;;;5055240;28;20080;-67
2023/11/01 04:36:24;;;;;;;2.33;0.93;;;4.20;99.90;;;;;;5052480;28;20053;-64
2023/11/01 04:38:57;;;;;;;2.08;1.00;;;4.20;99.90;;;;;;5052951;28;20526;-63
2023/11/01 04:41:27;;;;;;;4.85;1.10;;;4.20;99.90;;;;;;5055307;28;20458;-65
2023/11/01 04:43:55;;;;;;;1.48;0.85;;;4.20;99.90;;;;;;5049391;28;20045;-62
2023/11/01 04:46:22;;;;;;;4.30;1.13;;;4.20;99.90;;;;;;5053673;28;20556;-63
2023/11/01 04:48:49;;;;;;;0.95;0.73;;;4.20;99.90;;;;;;5044952;28;20115;-66
2023/11/01 04:51:17;;;;;;;1.05;0.63;;;4.20;99.90;;;;;;5051942;28;21192;-61
2023/11/01 04:53:44;;;;;;;1.33;1.20;;;4.10;99.90;;;;;;5051072;28;20044;-62
2023/11/01 04:56:11;;;;;;;3.38;1.08;;;4.20;99.90;;;;;;5051508;28;20686;-63
2023/11/01 04:58:38;;;;;;;3.00;0.98;;;4.10;99.90;;;;;;5053781;28;20390;-64
2023/11/01 05:01:07;;;;;;;1.58;1.05;;;4.20;99.90;;;;;;5034925;28;20077;-62
2023/11/01 05:03:36;;;;;;;9.85;0.85;;;4.20;99.90;;;;;;5051062;28;20049;-62
2023/11/01 05:06:04;;;;;;;3.33;0.98;;;4.20;99.90;;;;;;5052478;28;20044;-64
2023/11/01 05:08:31;;;;;;;1.67;0.50;;;4.20;99.90;;;;;;5049975;28;20044;-67
2023/11/01 05:10:58;;;;;;;1.92;0.70;;;4.10;99.90;;;;;;5055211;28;20070;-62
2023/11/01 05:13:25;;;;;;;2.47;1.00;;;4.00;99.90;;;;;;5050552;28;20045;-64
2023/11/01 05:15:52;;;;;;;7.60;1.80;;;4.10;99.90;;;;;;5049821;28;20049;-63
2023/11/01 05:18:19;;;;;;;3.17;0.82;;;4.10;99.90;;;;;;5050144;28;20045;-62
2023/11/01 05:20:46;;;;;;;0.75;0.60;;;4.10;99.90;;;;;;5056929;28;20877;-61
2023/11/01 05:23:13;;;;;;;1.50;0.85;;;4.10;99.90;;;;;;5052616;28;20089;-62
2023/11/01 05:25:40;;;;;;;1.85;0.95;;;4.00;99.90;;;;;;5051498;28;20049;-61
2023/11/01 05:28:07;;;;;;;1.38;1.15;;;4.00;99.90;;;;;;5050721;28;20052;-62
2023/11/01 05:30:34;;;;;;;3.35;0.57;;;4.00;99.90;;;;;;5050457;28;20041;-61
2023/11/01 05:33:01;;;;;;;2.15;0.65;;;3.90;99.90;;;;;;5051837;28;20123;-62
2023/11/01 05:35:28;;;;;;;1.02;0.40;;;3.90;99.90;;;;;;5053608;28;20061;-61
2023/11/01 05:37:55;;;;;;;2.17;1.05;;;3.90;99.90;;;;;;5054216;28;20041;-63
2023/11/01 05:40:22;;;;;;;2.97;0.52;;;3.90;99.90;;;;;;5049578;28;20037;-62
2023/11/01 05:42:49;;;;;;;0.35;0.28;;;3.90;99.90;;;;;;5051040;28;20056;-61
2023/11/01 05:45:16;;;;;;;2.05;0.38;;;3.90;99.90;;;;;;5046134;28;20052;-63
2023/11/01 05:47:51;;;;;;;0.47;0.45;;;3.90;99.90;;;;;;5052371;28;20049;-63
2023/11/01 05:50:24;;;;;;;1.73;0.50;;;3.90;99.90;;;;;;5055625;28;20056;-61
2023/11/01 05:52:55;;;;;;;1.23;0.55;;;3.90;99.90;;;;;;5049999;28;20051;-62
2023/11/01 05:55:24;;;;;;;0.57;0.45;;;3.80;99.90;;;;;;5056184;28;20098;-61
2023/11/01 05:58:08;;;;;;;1.23;0.63;;;3.80;99.90;;;;;;5052574;28;20049;-63
2023/11/01 06:00:35;;;;;;;1.42;0.28;;;3.80;99.90;;;;;;5054379;28;20045;-61
2023/11/01 06:03:06;;;;;;;2.35;1.00;;;3.80;99.90;;;;;;5051990;28;20516;-61
2023/11/01 06:05:35;;;;;;;2.15;1.30;;;3.70;99.90;;;;;;5049281;28;20082;-63
2023/11/01 06:08:02;;;;;;;2.10;1.90;;;3.70;99.90;;;;;;5045220;28;20072;-64
2023/11/01 06:10:30;;;;;;;2.20;2.00;;;3.70;99.90;;;;;;5053019;28;20045;-63
2023/11/01 06:12:57;;;;;;;8.57;3.95;;;3.70;99.90;;;;;;5049909;28;20124;-63
2023/11/01 06:15:24;;;;;;;1.15;1.00;;;3.60;99.90;;;;;;5049274;28;20128;-64
2023/11/01 06:17:52;;;;;;;13.68;4.30;;;3.60;99.90;;;;;;5055687;28;20106;-65
2023/11/01 06:20:19;;;;;;;0.88;0.65;;;3.60;99.90;;;;;;5055894;28;20053;-62
2023/11/01 06:22:46;;;;;;;7.07;2.35;;;3.60;99.90;;;;;;5052553;28;20123;-61
2023/11/01 06:25:15;;;;;;;2.45;0.88;;;3.60;99.90;;;;;;5049202;28;20041;-62
2023/11/01 06:27:42;;;;;;;5.78;1.20;;;3.60;99.90;;;;;;5052591;28;20087;-62
2023/11/01 06:30:10;;;;;;;0.52;0.30;;;3.60;99.90;;;;;;5052343;28;20053;-60
2023/11/01 06:32:37;;;;;;;1.17;0.60;;;3.50;99.90;;;;;;5055952;28;20049;-62
2023/11/01 06:35:04;;;;;;;2.50;0.93;;;3.60;99.90;;;;;;5049714;28;20080;-61
2023/11/01 06:37:32;;;;;;;1.38;0.30;;;3.60;99.90;;;;;;5048170;28;20096;-61
2023/11/01 06:39:59;;;;;;;1.50;0.55;;;3.50;99.90;;;;;;5057276;28;20043;-61
2023/11/01 06:42:26;;;;;;;0.65;0.45;;;3.50;99.90;;;;;;5050384;28;20521;-61
2023/11/01 06:44:53;;;;;;;0.20;0.20;;;3.50;99.90;;;;;;5051783;28;20473;-62
2023/11/01 06:47:20;;;;;;;1.70;0.75;;;3.50;99.90;;;;;;5059280;28;20041;-63
2023/11/01 06:49:47;;;;;;;0.57;0.38;;;3.50;99.90;;;;;;5051495;28;20040;-61
2023/11/01 06:52:15;;;;;;;3.47;0.35;;;3.60;99.90;;;;;;5056594;28;20047;-63
2023/11/01 06:54:43;;;;;;;3.65;0.25;;;3.60;99.90;;;;;;5055887;28;20131;-61
2023/11/01 06:57:10;;;;;;;1.75;1.08;;;3.60;99.90;;;;;;5050515;28;20124;-61
2023/11/01 06:59:41;;;;;;;1.15;0.30;;;3.60;99.90;;;;;;5049570;28;20071;-61
2023/11/01 07:02:09;;;;;;;1.17;0.20;;;3.50;99.90;;;;;;5048789;28;20059;-62
2023/11/01 07:04:36;;;;;;;0.75;0.40;;;3.50;99.90;;;;;;5054135;28;20041;-63
2023/11/01 07:07:03;;;;;;;1.98;0.50;;;3.50;99.90;;;;;;5046972;28;20087;-61
2023/11/01 07:09:31;;;;;;;0.85;0.35;;;3.50;99.90;;;;;;5049369;28;20068;-67
2023/11/01 07:11:58;;;;;;;1.02;0.30;;;3.50;99.90;;;;;;5054380;28;20072;-61
2023/11/01 07:14:25;;;;;;;0.22;0.22;;;3.50;99.90;;;;;;5051799;28;20453;-63
2023/11/01 07:16:52;;;;;;;0.85;0.40;;;3.50;99.90;;;;;;5050837;28;20045;-61
2023/11/01 07:19:19;;;;;;;0.70;0.40;;;3.50;99.90;;;;;;5047471;28;20048;-62
2023/11/01 07:21:46;;;;;;;0.38;0.30;;;3.60;99.90;;;;;;5053022;28;20518;-62
2023/11/01 07:24:13;;;;;;;0.52;0.28;;;3.60;99.90;;;;;;5052739;28;20074;-60
2023/11/01 07:26:40;;;;;;;1.02;0.90;;;3.60;99.90;;;;;;5036252;28;20426;-62
2023/11/01 07:29:07;;;;;;;1.08;0.40;;;3.70;99.90;;;;;;5052793;28;20048;-62
2023/11/01 07:31:34;;;;;;;0.65;0.40;;;3.60;99.90;;;;;;5052712;28;20099;-61
2023/11/01 07:34:01;;;;;;;2.30;0.40;;;3.60;99.90;;;;;;5049877;28;20082;-61
2023/11/01 07:36:28;;;;;;;0.45;0.40;;;3.60;99.90;;;;;;5049529;28;20045;-61
2023/11/01 07:38:54;;;;;;;2.78;0.40;;;3.60;99.90;;;;;;5046257;28;20120;-62
2023/11/01 07:41:21;;;;;;;2.83;2.28;;;3.50;99.90;;;;;;5054532;28;20052;-61
2023/11/01 07:43:48;;;;;;;0.32;0.30;;;3.50;99.90;;;;;;5048922;28;21372;-60
2023/11/01 07:46:16;;;;;;;0.95;0.30;;;3.50;99.90;;;;;;5055707;28;20044;-61
2023/11/01 07:48:43;;;;;;;0.93;0.68;;;3.50;99.90;;;;;;5049029;28;20410;-61
2023/11/01 07:51:10;;;;;;;0.65;0.50;;;3.50;99.90;;;;;;5047488;28;20045;-62
2023/11/01 07:53:37;;;;;;;4.03;1.20;;;3.50;99.90;;;;;;5049469;28;20040;-62
2023/11/01 07:56:04;;;;;;;1.40;0.40;;;3.50;99.90;;;;;;5053181;28;20074;-61
2023/11/01 07:58:31;;;;;;;4.57;0.70;;;3.60;99.90;;;;;;5053687;28;20041;-63
2023/11/01 08:00:59;;;;;;;0.80;0.60;;;3.60;99.90;;;;;;5055925;28;20041;-61
2023/11/01 08:03:26;;;;;;;0.60;0.52;;;3.60;99.90;;;;;;5051804;28;20130;-62
2023/11/01 08:05:53;;;;;;;1.83;0.30;;;3.60;99.90;;;;;;5060100;28;20483;-61
2023/11/01 08:08:20;;;;;;;1.50;0.75;;;3.60;99.90;;;;;;5052156;28;20041;-62
2023/11/01 08:10:47;;;;;;;2.13;0.93;;;3.50;99.90;;;;;;5054930;28;20045;-62
2023/11/01 08:13:15;;;;;;;0.43;0.43;;;3.50;99.90;;;;;;5055218;28;20556;-61
2023/11/01 08:15:42;;;;;;;1.52;0.40;;;3.50;99.90;;;;;;5055048;28;20131;-62
2023/11/01 08:18:10;;;;;;;1.63;0.57;;;3.60;99.90;;;;;;5048338;28;20134;-61
2023/11/01 08:20:38;;;;;;;0.40;0.30;;;3.60;99.90;;;;;;5054869;28;20160;-60
2023/11/01 08:23:05;;;;;;;2.03;0.57;;;3.60;99.90;;;;;;5050128;28;20045;-61
2023/11/01 08:25:33;;;;;;;1.42;0.60;;;3.60;99.90;;;;;;5054990;28;20059;-61
2023/11/01 08:28:02;;;;;;;0.90;0.80;;;3.60;99.90;;;;;;5053836;28;20057;-60
2023/11/01 08:30:29;;;;;;;3.40;1.75;;;3.70;99.90;;;;;;5049237;28;20048;-61
2023/11/01 08:32:56;;;;;;;1.55;0.50;;;3.60;99.90;;;;;;5053886;28;20099;-63
2023/11/01 08:35:23;;;;;;;2.53;1.13;;;3.70;99.90;;;;;;5057354;28;20686;-62
2023/11/01 08:37:50;;;;;;;0.57;0.40;;;3.60;99.90;;;;;;5060230;28;20418;-62
2023/11/01 08:40:17;;;;;;;2.22;0.30;;;3.60;99.90;;;;;;5052455;28;20049;-67
2023/11/01 08:42:44;;;;;;;3.00;0.57;;;3.60;99.90;;;;;;5053591;28;20075;-61
2023/11/01 08:45:11;;;;;;;3.08;0.60;;;3.60;99.90;;;;;;5056102;28;20094;-62
2023/11/01 08:47:42;;;;;;;0.57;0.43;;;3.60;99.90;;;;;;5050275;28;20041;-63
2023/11/01 08:50:13;;;;;;;1.23;0.30;;;3.60;99.90;;;;;;5057584;28;20056;-67
2023/11/01 08:52:42;;;;;;;1.77;1.67;;;3.60;99.90;;;;;;5052361;28;20064;-61
2023/11/01 08:55:14;;;;;;;1.85;0.70;;;3.60;99.90;;;;;;5046363;28;20104;-61
2023/11/01 08:57:44;;;;;;;0.70;0.70;;;3.60;99.90;;;;;;5059170;28;20394;-60
2023/11/01 09:00:13;;;;;;;3.35;1.70;;;3.50;99.90;;;;;;5051207;28;20083;-60
2023/11/01 09:02:40;;;;;;;1.83;0.40;;;3.60;99.90;;;;;;5059512;28;20425;-60
2023/11/01 09:05:08;;;;;;;1.00;0.52;;;3.60;99.90;;;;;;5052802;28;20407;-62
2023/11/01 09:07:36;;;;;;;0.65;0.35;;;3.60;99.90;;;;;;5055547;28;20063;-63
2023/11/01 09:10:04;;;;;;;3.65;0.93;;;3.60;99.90;;;;;;5060144;28;20037;-61
2023/11/01 09:12:31;;;;;;;1.25;0.35;;;3.60;99.90;;;;;;5051947;28;20045;-61
2023/11/01 09:14:58;;;;;;;1.42;0.32;;;3.60;99.90;;;;;;5043689;28;20040;-62
2023/11/01 09:17:25;;;;;;;1.25;0.40;;;3.60;99.90;;;;;;5055997;28;20052;-61
2023/11/01 09:19:52;;;;;;;2.58;0.68;;;3.60;99.90;;;;;;5050459;28;20040;-61
2023/11/01 09:22:18;;;;;;;0.85;0.40;;;3.70;99.90;;;;;;5052283;28;20037;-63
2023/11/01 09:24:45;;;;;;;0.47;0.32;;;3.60;99.90;;;;;;5035225;28;20486;-62
2023/11/01 09:27:13;;;;;;;1.20;0.38;;;3.60;99.90;;;;;;5052343;28;20123;-61
2023/11/01 09:29:40;;;;;;;1.25;0.50;;;3.70;99.90;;;;;;5054178;28;20128;-68
2023/11/01 09:32:07;;;;;;;1.45;0.47;;;3.70;99.90;;;;;;5056124;28;20048;-61
2023/11/01 09:34:34;;;;;;;1.00;0.52;;;3.70;99.90;;;;;;5052029;28;20100;-61
2023/11/01 09:37:01;;;;;;;2.40;0.30;;;3.70;99.90;;;;;;5054882;28;20045;-62
2023/11/01 09:39:27;;;;;;;1.85;0.43;;;3.70;99.90;;;;;;5050728;28;20111;-63
2023/11/01 09:42:03;;;;;;;1.33;0.60;;;3.70;99.90;;;;;;5051745;28;20052;-63
2023/11/01 09:44:30;;;;;;;0.75;0.63;;;3.70;99.90;;;;;;5049305;28;20048;-62
2023/11/01 09:46:58;;;;;;;2.13;0.60;;;3.70;99.90;;;;;;5055304;28;20047;-62
2023/11/01 09:49:25;;;;;;;0.43;0.32;;;3.70;99.90;;;;;;5060090;28;20052;-64
2023/11/01 09:51:52;;;;;;;1.35;0.40;;;3.70;99.90;;;;;;5056026;28;20041;-60
2023/11/01 09:54:19;;;;;;;2.88;0.43;;;3.60;99.90;;;;;;5056831;28;20041;-62
2023/11/01 09:56:46;;;;;;;1.45;0.55;;;3.60;99.90;;;;;;5054443;28;20052;-61
2023/11/01 09:59:14;;;;;;;0.60;0.60;;;3.60;99.90;;;;;;5050543;28;20037;-60
2023/11/01 10:01:41;;;;;;;1.25;0.68;;;3.60;99.90;;;;;;5056210;28;20519;-63
2023/11/01 10:04:08;;;;;;;2.05;0.65;;;3.60;99.90;;;;;;5053408;28;20114;-65
2023/11/01 10:06:36;;;;;;;2.05;0.50;;;3.60;99.90;;;;;;5057699;28;20045;-61
2023/11/01 10:09:04;;;;;;;1.08;0.60;;;3.60;99.90;;;;;;5057486;28;20041;-61
2023/11/01 10:11:32;;;;;;;0.90;0.30;;;3.60;99.90;;;;;;5052499;28;20411;-62
2023/11/01 10:14:02;;;;;;;1.70;0.65;;;3.60;99.90;;;;;;5050913;28;20123;-62
2023/11/01 10:16:30;;;;;;;0.73;0.57;;;3.50;99.90;;;;;;5054262;28;20051;-64
2023/11/01 10:18:57;;;;;;;0.65;0.60;;;3.60;99.90;;;;;;5055145;28;20033;-61
2023/11/01 10:21:27;;;;;;;4.28;0.68;;;3.60;99.90;;;;;;5053010;28;20090;-65
2023/11/01 10:23:57;;;;;;;1.30;0.60;;;3.60;99.90;;;;;;5052861;28;20107;-62
2023/11/01 10:26:27;;;;;;;0.32;0.32;;;3.60;99.90;;;;;;5048326;28;20040;-61
2023/11/01 10:28:56;;;;;;;0.30;0.30;;;3.70;99.90;;;;;;5037966;28;20041;-61
2023/11/01 10:31:23;;;;;;;3.15;0.70;;;3.70;99.90;;;;;;5049261;28;20049;-60
2023/11/01 10:33:52;;;;;;;2.53;0.60;;;3.70;99.90;;;;;;5048318;28;20617;-65
2023/11/01 10:36:20;;;;;;;0.47;0.38;;;3.70;99.90;;;;;;5054918;28;20060;-62
2023/11/01 10:38:50;;;;;;;2.40;0.43;;;3.70;99.90;;;;;;5048850;28;20038;-69
2023/11/01 10:41:19;;;;;;;0.63;0.43;;;3.80;99.90;;;;;;5057773;28;20041;-61
2023/11/01 10:43:47;;;;;;;0.57;0.40;;;3.80;99.90;;;;;;5048833;28;20091;-60
2023/11/01 10:46:16;;;;;;;1.98;0.50;;;3.80;99.90;;;;;;5045564;28;20049;-60
2023/11/01 10:48:45;;;;;;;1.08;0.30;;;3.80;99.90;;;;;;5031872;28;20040;-62
2023/11/01 10:51:13;;;;;;;0.30;0.20;;;3.80;99.90;;;;;;5049736;28;20044;-63
2023/11/01 10:53:41;;;;;;;0.68;0.57;;;3.80;99.90;;;;;;5049960;28;20044;-63
2023/11/01 10:56:08;;;;;;;0.70;0.32;;;3.80;99.90;;;;;;5034048;28;20469;-61
2023/11/01 10:58:42;;;;;;;3.17;0.40;;;3.80;99.90;;;;;;5049186;28;20163;-61
2023/11/01 11:01:24;;;;;;;2.85;0.30;;;3.90;99.90;;;;;;5051844;28;20119;-62
2023/11/01 11:04:01;;;;;;;0.25;0.20;;;3.90;99.90;;;;;;5048433;28;20080;-61
2023/11/01 11:06:38;;;;;;;0.65;0.52;;;4.00;99.90;;;;;;5048187;28;20033;-63
2023/11/01 11:09:22;;;;;;;0.25;0.20;;;4.00;99.90;;;;;;5046971;28;20067;-60
2023/11/01 11:12:15;;;;;;;1.45;0.20;;;4.00;99.90;;;;;;5046791;28;20068;-64
2023/11/01 11:14:43;;;;;;;0.20;0.20;;;4.10;99.90;;;;;;5053913;28;20041;-61
2023/11/01 11:17:15;;;;;;;5.53;0.95;;;4.10;99.90;;;;;;5047399;28;20053;-63
2023/11/01 11:20:11;;;;;;;1.75;0.30;;;4.10;99.90;;;;;;5048807;28;20045;-61
2023/11/01 11:23:02;;;;;;;2.28;0.38;;;4.20;99.90;;;;;;5045487;28;20029;-62
2023/11/01 11:25:43;;;;;;;1.95;0.55;;;4.20;99.90;;;;;;5042511;28;20053;-65
2023/11/01 11:28:17;;;;;;;0.57;0.38;;;4.10;99.90;;;;;;5050953;28;20060;-64
2023/11/01 11:30:47;;;;;;;1.17;0.57;;;4.20;99.90;;;;;;5046313;28;20075;-61
2023/11/01 11:33:14;;;;;;;0.85;0.38;;;4.20;99.90;;;;;;5051039;28;20033;-63
2023/11/01 11:35:41;;;;;;;1.55;0.82;;;4.20;99.90;;;;;;5048366;28;20088;-61
2023/11/01 11:38:32;;;;;;;0.77;0.65;;;4.30;99.90;;;;;;5054466;28;20055;-61
2023/11/01 11:41:27;;;;;;;0.80;0.40;;;4.30;99.90;;;;;;5055131;28;20040;-61
2023/11/01 11:44:15;;;;;;;1.50;0.38;;;4.20;99.90;;;;;;5047959;28;20029;-61
2023/11/01 11:46:49;;;;;;;1.15;0.75;;;4.20;99.90;;;;;;5052072;28;20041;-62
2023/11/01 11:49:28;;;;;;;0.88;0.40;;;4.30;99.90;;;;;;5047216;28;20049;-64
2023/11/01 11:52:08;;;;;;;0.77;0.57;;;4.30;99.90;;;;;;5046755;28;20049;-66
2023/11/01 11:54:36;;;;;;;0.73;0.45;;;4.30;99.90;;;;;;5049412;28;20041;-61
2023/11/01 11:57:08;;;;;;;2.45;0.63;;;4.30;99.90;;;;;;5049806;28;20487;-61
2023/11/01 11:59:35;;;;;;;1.65;0.73;;;4.30;99.90;;;;;;5056872;28;20459;-61
2023/11/01 12:02:16;;;;;;;0.38;0.38;;;4.20;99.90;;;;;;5049768;28;20380;-61
2023/11/01 12:04:44;;;;;;;1.10;0.80;;;4.30;99.90;;;;;;5050610;28;20044;-64
2023/11/01 12:07:17;;;;;;;2.80;0.65;;;4.20;99.90;;;;;;5051371;28;20167;-64
2023/11/01 12:09:52;;;;;;;1.20;0.30;;;4.30;99.90;;;;;;5048968;28;20040;-62
2023/11/01 12:12:20;;;;;;;1.40;0.82;;;4.30;99.90;;;;;;5050630;28;20053;-63
2023/11/01 12:15:00;;;;;;;1.30;0.40;;;4.30;99.90;;;;;;5045329;28;20040;-61
2023/11/01 12:17:28;;;;;;;0.88;0.50;;;4.30;99.90;;;;;;5045360;28;20112;-61
2023/11/01 12:19:57;;;;;;;2.65;0.77;;;4.30;99.90;;;;;;5048050;28;20583;-62
2023/11/01 12:22:25;;;;;;;2.35;0.90;;;4.40;99.90;;;;;;5043854;28;20462;-62
2023/11/01 12:24:55;;;;;;;2.42;1.90;;;4.40;99.90;;;;;;5047197;28;20491;-61
2023/11/01 12:27:30;;;;;;;3.28;0.55;;;4.40;99.90;;;;;;5047929;28;20061;-64
2023/11/01 12:29:57;;;;;;;2.15;0.80;;;4.30;99.90;;;;;;5047922;28;20098;-62
2023/11/01 12:32:24;;;;;;;0.77;0.30;;;4.40;99.90;;;;;;5049704;28;20537;-61
2023/11/01 12:34:51;;;;;;;0.90;0.52;;;4.40;99.90;;;;;;5051195;28;20108;-62
2023/11/01 12:37:20;;;;;;;4.10;0.47;;;4.30;99.90;;;;;;5054847;28;20073;-61
2023/11/01 12:40:23;;;;;;;0.50;0.40;;;4.30;99.90;;;;;;5049661;28;20498;-63
2023/11/01 12:43:04;;;;;;;1.17;0.52;;;4.30;99.90;;;;;;4968254;28;20059;-64
2023/11/01 12:45:32;;;;;;;0.57;0.40;;;4.30;99.90;;;;;;5043298;28;20140;-64
2023/11/01 12:48:00;;;;;;;4.88;0.88;;;4.20;99.90;;;;;;5051346;28;20045;-63
2023/11/01 12:50:36;;;;;;;0.32;0.25;;;4.20;99.90;;;;;;5054121;28;20065;-62
2023/11/01 12:53:03;;;;;;;0.65;0.40;;;4.20;99.90;;;;;;5062383;28;20040;-61
2023/11/01 12:55:30;;;;;;;2.15;0.30;;;4.20;99.90;;;;;;5051038;28;20730;-64
2023/11/01 12:58:01;;;;;;;2.63;0.40;;;4.20;99.90;;;;;;5058323;28;20053;-62
2023/11/01 13:00:30;;;;;;;2.22;0.30;;;4.20;99.90;;;;;;5050397;28;20053;-62
2023/11/01 13:02:58;;;;;;;0.38;0.20;;;4.10;99.90;;;;;;5053993;28;20052;-61
2023/11/01 13:05:26;;;;;;;0.55;0.55;;;4.10;99.90;;;;;;5054203;28;20473;-62